Date,TemperatureHighF,TemperatureAvgF,TemperatureLowF,DewpointHighF,DewpointAvgF,DewpointLowF,HumidityHigh,HumidityAvg,HumidityLow,PressureMaxIn,PressureMinIn,WindSpeedMaxMPH,WindSpeedAvgMPH,GustSpeedMaxMPH,PrecipitationSumIn
2014-2-1,43.4,33.2,23.5,31.1,22.4,17.9,83,65,50,29.59,29.30,6,2,12,0.01
2014-2-2,47.5,38.5,31.9,37.7,33.0,27.6,92,81,61,29.35,29.14,5,2,11,0.06
2014-2-3,32.0,28.5,22.7,27.7,25.2,20.7,92,87,77,29.53,29.34,5,1,7,0.00
2014-2-4,32.5,24.4,16.2,23.1,19.0,13.8,92,80,63,29.70,29.53,4,1,6,0.14
2014-2-5,25.1,23.9,23.0,23.0,21.5,19.9,100,91,85,29.54,28.92,2,0,4,0.00
2014-2-6,32.5,19.4,10.4,21.0,11.5,3.6,92,73,49,29.51,29.21,5,1,9,0.14
2014-2-7,31.0,18.1,5.6,13.1,8.0,1.3,85,66,45,29.50,29.42,9,2,13,0.00
2014-2-8,27.0,17.4,8.6,6.9,3.9,-0.1,72,56,41,29.53,29.38,5,2,10,0.00
2014-2-9,32.0,20.7,12.9,18.1,11.5,4.9,90,69,46,29.41,29.19,3,1,8,0.01
2014-2-10,27.9,17.9,11.1,17.3,10.0,5.2,89,72,50,29.46,29.16,9,4,12,0.00
2014-2-11,24.5,13.7,7.3,8.1,4.8,0.7,92,68,47,29.69,29.46,10,3,17,0.01
2014-2-12,24.7,12.8,0.0,8.2,-0.2,-4.4,82,59,30,29.79,29.60,4,1,9,0.00
2014-2-13,30.7,22.8,14.1,29.2,19.9,6.2,94,88,70,29.60,28.33,3,1,5,0.00
2014-2-14,32.5,27.6,21.5,29.6,24.7,19.5,95,89,80,29.01,28.22,14,4,20,0.04
2014-2-15,31.5,26.4,23.1,28.4,23.3,19.8,93,88,84,29.08,28.85,5,1,9,0.00
2014-2-16,27.3,19.5,13.5,21.9,12.1,5.7,90,73,54,29.27,28.86,13,7,19,0.00
2014-2-17,31.9,16.4,6.4,7.3,1.5,-3.3,71,53,31,29.60,29.28,8,3,15,0.01
2014-2-18,24.2,15.7,5.1,22.2,11.0,-2.3,92,82,67,29.58,29.22,2,0,4,0.00
2014-2-19,33.9,24.8,14.7,32.4,22.4,12.3,95,90,83,29.36,28.99,11,0,11,0.00
2014-2-20,47.7,37.1,28.6,33.9,27.9,20.3,94,72,38,29.47,29.16,8,3,16,0.85
2014-2-21,35.8,33.5,31.7,34.8,32.4,30.4,96,96,94,29.36,28.96,3,1,5,0.30
2014-2-22,48.7,39.5,28.7,33.5,26.7,21.8,95,64,38,29.23,29.11,12,4,22,0.01
2014-2-23,45.7,40.7,35.8,27.4,24.6,21.3,66,53,46,29.26,29.06,6,2,9,0.00
2014-2-24,35.7,24.9,17.5,23.1,12.5,6.3,73,59,49,29.23,29.04,13,6,20,0.00
2014-2-25,26.0,18.1,13.1,11.4,7.1,3.8,76,62,50,29.26,29.14,13,5,16,0.00
2014-2-26,23.9,14.3,6.9,9.2,0.9,-8.1,79,57,34,29.19,29.03,12,3,18,0.00
2014-2-27,23.7,12.1,0.8,14.7,0.2,-7.8,84,59,39,29.20,28.84,13,4,20,0.00
2014-2-28,20.2,9.4,1.8,-1.8,-7.1,-10.9,76,49,28,29.67,29.21,10,4,20,0.00